createdAt,value
2023-01-04T00:01:24.011Z,6.30
2023-01-04T00:03:52.978Z,6.20
2023-01-04T00:06:21.552Z,6.30
2023-01-04T00:08:49.793Z,6.30
2023-01-04T00:11:20.100Z,6.20
2023-01-04T00:13:50.030Z,6.20
2023-01-04T00:16:21.209Z,6.40
2023-01-04T00:18:49.632Z,6.20
2023-01-04T00:21:22.297Z,6.30
2023-01-04T00:23:52.149Z,7.50
2023-01-04T00:26:22.392Z,6.20
2023-01-04T00:28:55.042Z,6.20
2023-01-04T00:31:25.687Z,6.50
2023-01-04T00:33:55.560Z,6.40
2023-01-04T00:36:24.034Z,6.10
2023-01-04T00:39:07.358Z,6.10
2023-01-04T00:44:28.569Z,5.60
2023-01-04T00:46:58.687Z,6.30
2023-01-04T00:49:28.143Z,6.10
2023-01-04T00:51:56.648Z,6.10
2023-01-04T00:54:25.311Z,6.10
2023-01-04T00:56:54.071Z,6.20
2023-01-04T00:59:23.118Z,6.10
2023-01-04T01:01:52.182Z,6.10
2023-01-04T01:04:24.213Z,6.10
2023-01-04T01:06:53.294Z,6.20
2023-01-04T01:09:23.580Z,6.60
2023-01-04T01:11:52.922Z,6.20
2023-01-04T01:14:23.012Z,6.60
2023-01-04T01:16:59.101Z,5.90
2023-01-04T01:19:30.165Z,6.20
2023-01-04T01:21:59.108Z,6.20
2023-01-04T01:24:28.042Z,7.40
2023-01-04T01:26:56.664Z,6.20
2023-01-04T01:29:25.052Z,6.20
2023-01-04T01:31:53.655Z,6.70
2023-01-04T01:34:22.215Z,6.10
2023-01-04T01:36:51.878Z,6.10
2023-01-04T01:39:20.052Z,5.20
2023-01-04T01:41:48.447Z,6.10
2023-01-04T01:44:53.894Z,6.10
2023-01-04T01:47:24.711Z,6.10
2023-01-04T01:49:55.065Z,6.50
2023-01-04T01:52:28.671Z,6.20
2023-01-04T01:55:01.007Z,6.20
2023-01-04T01:57:33.186Z,6.30
2023-01-04T02:00:05.746Z,6.30
2023-01-04T02:03:04.269Z,6.60
2023-01-04T02:05:33.709Z,6.10
2023-01-04T02:08:04.956Z,6.40
2023-01-04T02:10:34.432Z,6.40
2023-01-04T02:13:08.230Z,6.40
2023-01-04T02:15:57.912Z,6.30
2023-01-04T02:18:30.890Z,6.40
2023-01-04T02:21:03.599Z,6.40
2023-01-04T02:23:59.211Z,6.50
2023-01-04T02:26:53.913Z,6.40
2023-01-04T02:30:06.624Z,6.60
2023-01-04T02:32:49.691Z,6.50
2023-01-04T02:35:24.924Z,6.50
2023-01-04T02:38:01.551Z,6.50
2023-01-04T02:40:35.999Z,6.60
2023-01-04T02:43:27.528Z,6.50
2023-01-04T02:45:59.095Z,6.50
2023-01-04T02:48:53.930Z,6.50
2023-01-04T02:51:29.739Z,6.50
2023-01-04T02:54:02.040Z,6.50
2023-01-04T02:56:46.107Z,7.00
2023-01-04T02:59:37.953Z,6.50
2023-01-04T03:02:38.697Z,6.60
2023-01-04T03:05:33.997Z,7.20
2023-01-04T03:08:11.219Z,6.60
2023-01-04T03:10:42.524Z,6.60
2023-01-04T03:13:17.194Z,6.60
2023-01-04T03:15:50.979Z,6.60
2023-01-04T03:18:22.669Z,6.60
2023-01-04T03:20:54.017Z,6.90
2023-01-04T03:23:44.424Z,7.50
2023-01-04T03:26:33.237Z,6.60
2023-01-04T03:29:27.875Z,6.80
2023-01-04T03:32:17.844Z,7.00
2023-01-04T03:35:03.797Z,6.60
2023-01-04T03:37:39.714Z,6.60
2023-01-04T03:40:39.171Z,6.60
2023-01-04T03:43:31.676Z,6.60
2023-01-04T03:46:24.280Z,6.60
2023-01-04T03:48:57.747Z,6.60
2023-01-04T03:51:30.027Z,6.60
2023-01-04T03:54:04.898Z,6.70
2023-01-04T03:56:34.540Z,6.60
2023-01-04T03:59:02.827Z,6.90
2023-01-04T04:01:31.371Z,6.60
2023-01-04T04:04:16.686Z,6.60
2023-01-04T04:07:02.079Z,6.80
2023-01-04T04:09:31.555Z,6.60
2023-01-04T04:12:02.119Z,6.70
2023-01-04T04:14:30.460Z,6.60
2023-01-04T04:16:58.539Z,6.60
2023-01-04T04:19:26.723Z,6.60
2023-01-04T04:21:54.818Z,7.10
2023-01-04T04:24:25.782Z,6.60
2023-01-04T04:26:56.489Z,7.70
2023-01-04T04:29:25.577Z,7.70
2023-01-04T04:31:53.725Z,7.70
2023-01-04T04:34:21.826Z,7.20
2023-01-04T04:36:49.904Z,6.70
2023-01-04T04:39:18.072Z,7.00
2023-01-04T04:41:45.479Z,6.70
2023-01-04T04:44:16.220Z,6.70
2023-01-04T04:46:45.909Z,7.40
2023-01-04T04:49:15.183Z,6.70
2023-01-04T04:51:44.018Z,6.70
2023-01-04T04:54:15.855Z,6.90
2023-01-04T04:56:43.941Z,6.60
2023-01-04T04:59:12.057Z,6.60
2023-01-04T05:01:42.691Z,6.60
2023-01-04T05:04:16.322Z,6.60
2023-01-04T05:06:45.832Z,6.90
2023-01-04T05:09:15.104Z,6.50
2023-01-04T05:12:00.971Z,6.50
2023-01-04T05:14:29.391Z,6.40
2023-01-04T05:16:59.058Z,6.40
2023-01-04T05:19:27.273Z,6.40
2023-01-04T05:21:55.376Z,7.00
2023-01-04T05:24:23.412Z,6.40
2023-01-04T05:26:51.464Z,6.40
2023-01-04T05:29:33.448Z,6.40
2023-01-04T05:32:02.987Z,6.40
2023-01-04T05:34:31.147Z,6.40
2023-01-04T05:36:59.268Z,6.40
2023-01-04T05:39:27.344Z,6.70
2023-01-04T05:42:12.665Z,6.40
2023-01-04T05:44:40.798Z,6.70
2023-01-04T05:47:14.909Z,6.40
2023-01-04T05:49:43.659Z,6.40
2023-01-04T05:52:19.854Z,6.40
2023-01-04T05:54:47.985Z,6.60
2023-01-04T05:57:16.250Z,6.50
2023-01-04T05:59:44.585Z,6.40
2023-01-04T06:02:18.295Z,6.40
2023-01-04T06:04:46.948Z,6.40
2023-01-04T06:07:16.143Z,6.70
2023-01-04T06:09:44.632Z,6.50
2023-01-04T06:12:13.521Z,6.40
2023-01-04T06:14:41.909Z,6.40
2023-01-04T06:17:10.097Z,6.40
2023-01-04T06:19:39.679Z,6.40
2023-01-04T06:22:08.399Z,6.40
2023-01-04T06:24:36.600Z,6.40
2023-01-04T06:27:05.205Z,6.90
2023-01-04T06:29:33.297Z,6.40
2023-01-04T06:32:01.318Z,6.40
2023-01-04T06:34:31.504Z,6.40
2023-01-04T06:37:01.355Z,6.40
2023-01-04T06:39:29.904Z,6.40
2023-01-04T06:42:05.427Z,6.70
2023-01-04T06:44:34.768Z,6.40
2023-01-04T06:47:02.824Z,6.60
2023-01-04T06:49:30.939Z,6.50
2023-01-04T06:52:00.451Z,6.50
2023-01-04T06:54:29.642Z,6.50
2023-01-04T06:56:57.725Z,6.50
2023-01-04T06:59:26.049Z,6.60
2023-01-04T07:01:54.273Z,6.60
2023-01-04T07:04:22.612Z,6.60
2023-01-04T07:06:50.838Z,6.70
2023-01-04T07:09:20.561Z,6.60
2023-01-04T07:11:48.636Z,6.60
2023-01-04T07:14:16.868Z,6.90
2023-01-04T07:16:46.391Z,6.60
2023-01-04T07:19:14.527Z,6.60
2023-01-04T07:21:43.713Z,6.60
2023-01-04T07:24:13.224Z,6.60
2023-01-04T07:26:42.665Z,6.60
2023-01-04T07:29:17.396Z,6.60
2023-01-04T07:31:47.575Z,6.60
2023-01-04T07:34:20.088Z,6.60
2023-01-04T07:36:49.019Z,6.60
2023-01-04T07:39:18.381Z,6.60
2023-01-04T07:41:48.414Z,6.60
2023-01-04T07:44:21.540Z,6.60
2023-01-04T07:46:50.471Z,6.70
2023-01-04T07:49:19.212Z,6.60
2023-01-04T07:51:48.310Z,6.60
2023-01-04T07:54:17.196Z,6.60
2023-01-04T07:56:45.693Z,6.70
2023-01-04T07:59:16.725Z,6.70
2023-01-04T08:01:45.862Z,6.70
2023-01-04T08:04:15.195Z,6.70
2023-01-04T08:06:46.572Z,6.70
2023-01-04T08:09:14.737Z,6.70
2023-01-04T08:11:42.707Z,6.80
2023-01-04T08:14:11.371Z,6.80
2023-01-04T08:16:43.223Z,6.80
2023-01-04T08:19:14.938Z,6.80
2023-01-04T08:21:43.046Z,6.90
2023-01-04T08:24:12.553Z,6.90
2023-01-04T08:26:41.049Z,6.90
2023-01-04T08:29:09.202Z,6.90
2023-01-04T08:31:37.321Z,6.90
2023-01-04T08:34:10.676Z,7.00
2023-01-04T08:36:47.989Z,7.00
2023-01-04T08:39:16.336Z,7.00
2023-01-04T08:42:05.110Z,7.10
2023-01-04T08:44:36.121Z,7.10
2023-01-04T08:47:04.252Z,7.10
2023-01-04T08:49:33.795Z,7.10
2023-01-04T08:52:01.805Z,7.20
2023-01-04T08:54:30.089Z,7.20
2023-01-04T08:56:58.191Z,7.50
2023-01-04T08:59:26.223Z,7.20
2023-01-04T09:01:57.403Z,7.30
2023-01-04T09:04:29.299Z,7.30
2023-01-04T09:06:59.197Z,7.30
2023-01-04T09:09:27.313Z,7.30
2023-01-04T09:11:55.346Z,7.30
2023-01-04T09:14:23.413Z,7.30
2023-01-04T09:16:51.741Z,7.40
2023-01-04T09:19:22.204Z,7.40
2023-01-04T09:21:50.749Z,7.40
2023-01-04T09:24:20.447Z,7.40
2023-01-04T09:26:49.014Z,7.50
2023-01-04T09:29:17.367Z,7.40
2023-01-04T09:31:45.451Z,7.40
2023-01-04T09:34:16.629Z,8.00
2023-01-04T09:36:46.073Z,7.50
2023-01-04T09:39:21.794Z,8.00
2023-01-04T09:41:56.998Z,7.50
2023-01-04T09:45:12.297Z,7.50
2023-01-04T09:47:31.431Z,7.60
2023-01-04T09:50:04.473Z,7.60
2023-01-04T09:52:44.863Z,7.70
2023-01-04T09:55:37.786Z,7.70
2023-01-04T09:58:25.966Z,7.70
2023-01-04T10:01:01.063Z,8.00
2023-01-04T10:03:32.963Z,7.70
2023-01-04T10:06:03.176Z,7.70
2023-01-04T10:08:32.380Z,7.70
2023-01-04T10:11:15.107Z,7.70
2023-01-04T10:14:00.204Z,7.80
2023-01-04T10:17:11.850Z,7.80
2023-01-04T10:22:42.325Z,7.90
2023-01-04T10:25:25.361Z,7.90
2023-01-04T10:28:11.497Z,7.90
2023-01-04T10:30:53.527Z,7.90
2023-01-04T10:33:28.979Z,7.90
2023-01-04T10:35:58.289Z,8.10
2023-01-04T10:38:31.685Z,7.90
2023-01-04T10:41:02.673Z,7.90
2023-01-04T10:44:11.206Z,8.00
2023-01-04T10:46:40.347Z,7.90
2023-01-04T10:49:12.120Z,7.90
2023-01-04T10:51:50.268Z,7.90
2023-01-04T10:54:27.128Z,8.90
2023-01-04T10:57:06.715Z,8.30
2023-01-04T10:59:42.082Z,8.00
2023-01-04T11:02:20.533Z,8.00
2023-01-04T11:04:55.897Z,8.00
2023-01-04T11:07:29.545Z,8.00
2023-01-04T11:10:06.307Z,8.20
2023-01-04T11:12:34.539Z,8.10
2023-01-04T11:15:03.539Z,8.30
2023-01-04T11:17:37.060Z,8.20
2023-01-04T11:20:06.092Z,8.20
2023-01-04T11:22:40.261Z,8.20
2023-01-04T11:28:07.483Z,8.30
2023-01-04T11:30:46.383Z,8.60
2023-01-04T11:33:19.320Z,8.30
2023-01-04T11:35:49.512Z,8.30
2023-01-04T11:38:19.941Z,8.40
2023-01-04T11:41:04.150Z,8.40
2023-01-04T11:43:36.061Z,8.40
2023-01-04T11:46:06.369Z,8.40
2023-01-04T11:48:47.046Z,8.40
2023-01-04T11:51:22.059Z,8.80
2023-01-04T11:53:59.715Z,8.50
2023-01-04T11:56:29.858Z,8.50
2023-01-04T11:59:17.743Z,8.50
2023-01-04T12:01:51.667Z,8.50
2023-01-04T12:04:24.024Z,8.50
2023-01-04T12:06:56.785Z,8.50
2023-01-04T12:09:24.969Z,8.70
2023-01-04T12:11:56.144Z,8.50
2023-01-04T12:14:27.192Z,8.50
2023-01-04T12:17:04.369Z,8.50
2023-01-04T12:19:34.946Z,8.60
2023-01-04T12:22:05.955Z,8.50
2023-01-04T12:24:35.823Z,9.20
2023-01-04T12:27:04.540Z,8.50
2023-01-04T12:29:54.582Z,8.60
2023-01-04T12:32:55.913Z,8.60
2023-01-04T12:36:01.621Z,8.60
2023-01-04T12:39:01.054Z,8.60
2023-01-04T12:42:15.792Z,8.60
2023-01-04T12:45:23.487Z,8.60
2023-01-04T12:48:12.761Z,8.50
2023-01-04T12:51:32.323Z,8.60
2023-01-04T12:54:05.407Z,8.50
2023-01-04T12:57:11.543Z,8.60
2023-01-04T12:59:41.561Z,8.60
2023-01-04T13:02:21.802Z,8.60
2023-01-04T13:05:03.695Z,8.60
2023-01-04T13:07:44.487Z,8.50
2023-01-04T13:10:27.947Z,8.60
2023-01-04T13:13:21.748Z,8.70
2023-01-04T13:16:14.643Z,8.70
2023-01-04T13:18:44.658Z,8.70
2023-01-04T13:21:15.473Z,8.70
2023-01-04T13:23:51.125Z,8.60
2023-01-04T13:26:34.602Z,8.60
2023-01-04T13:29:13.133Z,8.60
2023-01-04T13:31:47.067Z,8.50
2023-01-04T13:34:20.500Z,8.50
2023-01-04T13:37:06.367Z,8.50
2023-01-04T13:39:35.041Z,8.50
2023-01-04T13:42:06.388Z,8.40
2023-01-04T13:45:18.959Z,8.40
2023-01-04T13:47:50.798Z,8.40
2023-01-04T13:50:29.303Z,8.40
2023-01-04T13:53:06.895Z,8.40
2023-01-04T13:55:37.406Z,8.40
2023-01-04T13:58:08.973Z,8.50
2023-01-04T14:00:45.015Z,8.40
2023-01-04T14:03:32.827Z,8.40
2023-01-04T14:06:15.352Z,8.40
2023-01-04T14:08:49.137Z,8.40
2023-01-04T14:11:35.334Z,8.70
2023-01-04T14:14:17.138Z,8.40
2023-01-04T14:16:45.281Z,8.40
2023-01-04T14:19:49.589Z,8.40
2023-01-04T14:22:42.841Z,8.40
2023-01-04T14:25:32.764Z,8.40
2023-01-04T14:28:22.006Z,8.40
2023-01-04T14:30:53.774Z,8.40
2023-01-04T14:33:26.192Z,8.40
2023-01-04T14:36:05.088Z,8.40
2023-01-04T14:38:37.991Z,8.30
2023-01-04T14:41:19.204Z,8.40
2023-01-04T14:43:49.276Z,8.40
2023-01-04T14:46:18.838Z,8.40
2023-01-04T14:48:46.948Z,8.70
2023-01-04T14:51:17.930Z,8.40
2023-01-04T14:53:46.425Z,8.40
2023-01-04T14:56:15.395Z,8.30
2023-01-04T14:58:43.984Z,8.40
2023-01-04T15:01:13.296Z,8.50
2023-01-04T15:03:45.432Z,8.40
2023-01-04T15:06:13.906Z,8.40
2023-01-04T15:08:42.101Z,8.40
2023-01-04T15:11:12.847Z,8.40
2023-01-04T15:13:41.256Z,8.80
2023-01-04T15:16:12.649Z,8.40
2023-01-04T15:18:42.521Z,8.40
2023-01-04T15:21:10.948Z,8.40
2023-01-04T15:23:39.749Z,8.40
2023-01-04T15:26:10.979Z,8.30
2023-01-04T15:28:39.455Z,8.40
2023-01-04T15:31:09.011Z,8.30
2023-01-04T15:33:37.994Z,8.40
2023-01-04T15:36:10.544Z,8.90
2023-01-04T15:38:38.559Z,7.80
2023-01-04T15:41:08.679Z,8.50
2023-01-04T15:43:36.671Z,8.40
2023-01-04T15:46:07.271Z,8.50
2023-01-04T15:48:36.215Z,8.40
2023-01-04T15:51:06.837Z,8.30
2023-01-04T15:53:36.611Z,8.40
2023-01-04T15:56:09.335Z,8.40
2023-01-04T15:58:37.593Z,8.40
2023-01-04T16:01:10.628Z,8.40
2023-01-04T16:03:39.146Z,8.30
2023-01-04T16:06:09.970Z,8.50
2023-01-04T16:08:39.724Z,8.40
2023-01-04T16:11:12.917Z,8.40
2023-01-04T16:13:41.499Z,8.40
2023-01-04T16:16:10.599Z,8.40
2023-01-04T16:18:39.602Z,8.80
2023-01-04T16:21:09.180Z,8.40
2023-01-04T16:23:39.022Z,8.40
2023-01-04T16:26:09.291Z,8.90
2023-01-04T16:28:38.273Z,8.40
2023-01-04T16:31:07.958Z,8.50
2023-01-04T16:33:36.888Z,8.40
2023-01-04T16:36:07.231Z,8.40
2023-01-04T16:38:37.735Z,8.40
2023-01-04T16:41:09.159Z,8.40
2023-01-04T16:43:45.702Z,8.10
2023-01-04T16:46:25.623Z,8.40
2023-01-04T16:48:55.501Z,8.40
2023-01-04T16:51:24.835Z,8.50
2023-01-04T16:53:53.637Z,8.40
2023-01-04T16:56:24.941Z,8.60
2023-01-04T16:58:53.507Z,8.50
2023-01-04T17:01:24.767Z,8.40
2023-01-04T17:03:59.710Z,8.40
2023-01-04T17:06:30.068Z,8.60
2023-01-04T17:08:59.593Z,8.90
2023-01-04T17:14:18.957Z,8.50
2023-01-04T17:16:47.872Z,8.50
2023-01-04T17:19:16.011Z,8.50
2023-01-04T17:21:44.132Z,8.50
2023-01-04T17:24:12.162Z,8.50
2023-01-04T17:26:42.702Z,9.20
2023-01-04T17:29:13.341Z,8.50
2023-01-04T17:31:43.323Z,8.50
2023-01-04T17:34:20.050Z,8.50
2023-01-04T17:36:50.554Z,8.50
2023-01-04T17:39:20.948Z,8.60
2023-01-04T17:41:50.451Z,8.60
2023-01-04T17:44:18.525Z,8.80
2023-01-04T17:46:46.629Z,8.60
2023-01-04T17:49:22.824Z,8.60
2023-01-04T17:51:54.567Z,8.60
2023-01-04T17:54:23.964Z,8.60
2023-01-04T17:56:53.486Z,8.50
2023-01-04T17:59:21.638Z,8.60
2023-01-04T18:01:49.970Z,8.60
2023-01-04T18:04:18.230Z,8.60
2023-01-04T18:06:46.324Z,8.60
2023-01-04T18:09:18.503Z,8.80
2023-01-04T18:11:50.932Z,8.60
2023-01-04T18:14:20.388Z,8.60
2023-01-04T18:16:58.279Z,8.60
2023-01-04T18:19:28.000Z,8.60
2023-01-04T18:21:56.322Z,8.60
2023-01-04T18:24:36.125Z,8.60
2023-01-04T18:29:56.591Z,8.70
2023-01-04T18:32:25.929Z,8.70
2023-01-04T18:34:54.131Z,8.70
2023-01-04T18:37:22.623Z,8.70
2023-01-04T18:39:51.059Z,8.70
2023-01-04T18:42:19.325Z,8.70
2023-01-04T18:44:49.738Z,8.70
2023-01-04T18:47:21.716Z,8.70
2023-01-04T18:49:50.286Z,8.70
2023-01-04T18:52:19.069Z,8.70
2023-01-04T18:54:48.685Z,8.70
2023-01-04T18:57:17.356Z,8.70
2023-01-04T18:59:49.855Z,8.70
2023-01-04T19:02:21.660Z,9.10
2023-01-04T19:04:50.348Z,8.70
2023-01-04T19:07:18.978Z,8.70
2023-01-04T19:09:47.242Z,8.80
2023-01-04T19:12:15.982Z,8.70
2023-01-04T19:14:44.244Z,8.70
2023-01-04T19:17:12.385Z,8.80
2023-01-04T19:19:43.187Z,9.10
2023-01-04T19:22:11.236Z,8.80
2023-01-04T19:24:39.357Z,8.80
2023-01-04T19:27:07.620Z,8.80
2023-01-04T19:29:38.515Z,8.80
2023-01-04T19:32:06.850Z,8.80
2023-01-04T19:34:35.022Z,8.90
2023-01-04T19:37:04.623Z,8.90
2023-01-04T19:39:32.740Z,8.90
2023-01-04T19:42:01.011Z,9.00
2023-01-04T19:44:29.229Z,9.00
2023-01-04T19:46:57.407Z,9.00
2023-01-04T19:49:25.639Z,9.40
2023-01-04T19:51:53.873Z,9.10
2023-01-04T19:54:25.717Z,9.10
2023-01-04T19:56:54.887Z,9.10
2023-01-04T19:59:23.647Z,9.50
2023-01-04T20:01:52.047Z,9.40
2023-01-04T20:04:20.593Z,9.20
2023-01-04T20:06:48.918Z,9.30
2023-01-04T20:09:19.237Z,9.30
2023-01-04T20:11:48.831Z,9.40
2023-01-04T20:14:17.071Z,9.30
2023-01-04T20:16:45.305Z,9.40
2023-01-04T20:19:13.440Z,9.40
2023-01-04T20:21:41.676Z,9.40
2023-01-04T20:24:10.409Z,9.40
2023-01-04T20:26:40.035Z,9.40
2023-01-04T20:29:09.802Z,9.50
2023-01-04T20:31:40.955Z,9.50
2023-01-04T20:34:11.915Z,9.50
2023-01-04T20:36:40.906Z,9.90
2023-01-04T20:39:11.864Z,9.00
2023-01-04T20:42:00.308Z,9.90
2023-01-04T20:44:28.984Z,9.90
2023-01-04T20:46:57.869Z,9.50
2023-01-04T20:49:26.109Z,9.60
2023-01-04T20:51:54.221Z,9.50
2023-01-04T20:54:23.911Z,9.60
2023-01-04T20:56:52.307Z,9.60
2023-01-04T20:59:22.986Z,9.80
2023-01-04T21:01:52.567Z,9.20
2023-01-04T21:04:20.770Z,9.70
2023-01-04T21:06:48.898Z,9.70
2023-01-04T21:09:16.986Z,9.70
2023-01-04T21:11:45.153Z,10.50
2023-01-04T21:14:13.510Z,9.80
2023-01-04T21:16:41.956Z,9.80
2023-01-04T21:19:11.470Z,9.80
2023-01-04T21:21:40.109Z,9.80
2023-01-04T21:24:08.857Z,9.80
2023-01-04T21:26:36.980Z,9.80
2023-01-04T21:29:05.228Z,9.80
2023-01-04T21:31:33.551Z,9.80
2023-01-04T21:34:03.615Z,9.80
2023-01-04T21:36:35.119Z,9.70
2023-01-04T21:39:03.588Z,9.70
2023-01-04T21:41:31.767Z,9.70
2023-01-04T21:44:00.292Z,9.40
2023-01-04T21:46:29.460Z,9.60
2023-01-04T21:48:59.198Z,9.70
2023-01-04T21:51:28.361Z,9.60
2023-01-04T21:53:59.135Z,9.50
2023-01-04T21:56:27.268Z,9.60
2023-01-04T21:58:55.387Z,9.60
2023-01-04T22:01:30.913Z,9.60
2023-01-04T22:04:00.833Z,10.20
2023-01-04T22:06:31.939Z,9.60
2023-01-04T22:09:01.443Z,9.80
2023-01-04T22:11:29.544Z,9.60
2023-01-04T22:13:57.930Z,9.60
2023-01-04T22:16:26.142Z,9.60
2023-01-04T22:18:54.230Z,10.00
2023-01-04T22:21:23.738Z,9.70
2023-01-04T22:23:52.266Z,9.60
2023-01-04T22:26:21.806Z,9.60
2023-01-04T22:28:49.867Z,9.70
2023-01-04T22:31:17.960Z,9.60
2023-01-04T22:33:46.068Z,10.10
2023-01-04T22:36:22.511Z,9.60
2023-01-04T22:38:52.537Z,9.60
2023-01-04T22:41:23.481Z,9.60
2023-01-04T22:43:56.616Z,9.70
2023-01-04T22:46:26.128Z,9.60
2023-01-04T22:48:54.697Z,9.60
2023-01-04T22:51:24.214Z,9.70
2023-01-04T22:53:55.212Z,9.70
2023-01-04T22:56:25.466Z,9.60
2023-01-04T22:58:55.617Z,9.70
2023-01-04T23:01:25.467Z,9.70
2023-01-04T23:03:54.718Z,9.70
2023-01-04T23:06:24.581Z,9.80
2023-01-04T23:08:56.952Z,9.70
2023-01-04T23:11:27.476Z,9.70
2023-01-04T23:13:55.979Z,9.70
2023-01-04T23:16:31.532Z,9.70
2023-01-04T23:19:01.141Z,9.70
2023-01-04T23:21:29.424Z,9.70
2023-01-04T23:23:57.552Z,9.80
2023-01-04T23:26:28.670Z,9.80
2023-01-04T23:28:57.109Z,9.80
2023-01-04T23:31:27.868Z,10.20
2023-01-04T23:33:57.748Z,9.80
2023-01-04T23:36:28.275Z,9.90
2023-01-04T23:39:00.983Z,10.20
2023-01-04T23:41:46.088Z,9.90
2023-01-04T23:44:16.182Z,10.00
2023-01-04T23:46:44.641Z,9.90
2023-01-04T23:49:13.800Z,9.90
2023-01-04T23:51:42.674Z,10.00
2023-01-04T23:54:11.202Z,10.00
2023-01-04T23:56:41.104Z,10.20
2023-01-04T23:59:09.421Z,10.10
